createdAt,value
2022-09-27T00:09:20.359Z,963.68
2022-09-27T00:24:22.801Z,963.53
2022-09-27T00:39:25.159Z,963.46
2022-09-27T00:54:27.554Z,963.49
2022-09-27T01:09:29.884Z,963.46
2022-09-27T01:24:32.185Z,963.55
2022-09-27T01:39:34.535Z,963.67
2022-09-27T01:54:36.795Z,963.73
2022-09-27T02:09:39.118Z,964
2022-09-27T02:24:41.479Z,964.2
2022-09-27T02:39:43.766Z,964.27
2022-09-27T02:54:46.205Z,964.36
2022-09-27T03:09:48.461Z,964.45
2022-09-27T03:24:50.714Z,964.51
2022-09-27T03:39:53.255Z,964.55
2022-09-27T03:55:01.154Z,964.68
2022-09-27T04:10:04.431Z,964.64
2022-09-27T04:25:06.659Z,964.7
2022-09-27T04:40:09.210Z,964.81
2022-09-27T04:55:11.731Z,964.91
2022-09-27T05:10:14.000Z,965
2022-09-27T05:25:16.285Z,965.07
2022-09-27T05:40:39.655Z,965.12
2022-09-27T05:55:43.413Z,965.16
2022-09-27T06:10:45.685Z,965.19
2022-09-27T06:25:48.051Z,965.31
2022-09-27T06:40:50.309Z,965.28
2022-09-27T06:55:52.594Z,965.28
2022-09-27T07:10:54.877Z,965.34
2022-09-27T07:25:57.125Z,965.37
2022-09-27T07:40:59.429Z,965.48
2022-09-27T07:56:01.758Z,965.53
2022-09-27T08:11:04.052Z,965.59
2022-09-27T08:26:06.395Z,965.61
2022-09-27T08:41:08.886Z,965.69
2022-09-27T08:56:11.370Z,965.71
2022-09-27T09:11:13.613Z,965.75
2022-09-27T09:26:15.938Z,965.83
2022-09-27T09:41:18.409Z,965.85
2022-09-27T09:56:20.726Z,965.89
2022-09-27T10:11:23.140Z,965.81
2022-09-27T10:26:25.419Z,965.85
2022-09-27T10:41:27.720Z,965.89
2022-09-27T10:56:29.992Z,965.94
2022-09-27T11:11:32.321Z,965.94
2022-09-27T11:26:34.605Z,965.97
2022-09-27T11:41:36.854Z,966.02
2022-09-27T11:56:39.208Z,966.05
2022-09-27T12:11:41.492Z,965.97
2022-09-27T12:26:43.769Z,965.95
2022-09-27T12:41:46.072Z,965.93
2022-09-27T12:56:48.387Z,966.05
2022-09-27T13:11:50.667Z,966
2022-09-27T13:26:53.012Z,966.08
2022-09-27T13:41:55.349Z,966.15
2022-09-27T13:56:57.645Z,966.24
2022-09-27T14:11:59.971Z,966.26
2022-09-27T14:27:02.285Z,966.26
2022-09-27T14:42:04.590Z,966.21
2022-09-27T14:57:06.871Z,966.18
2022-09-27T15:12:09.318Z,966.16
2022-09-27T15:27:11.582Z,966.12
2022-09-27T15:42:13.905Z,966.03
2022-09-27T15:57:16.241Z,966.2
2022-09-27T16:12:18.574Z,966.47
2022-09-27T16:27:20.905Z,966.29
2022-09-27T16:42:23.180Z,965.68
2022-09-27T16:57:25.469Z,965.34
2022-09-27T17:12:27.856Z,965.24
2022-09-27T17:27:30.226Z,965.01
2022-09-27T17:42:32.513Z,964.73
2022-09-27T17:57:34.781Z,964.62
2022-09-27T18:12:37.062Z,964.42
2022-09-27T18:27:39.383Z,964.26
2022-09-27T18:42:41.741Z,963.89
2022-09-27T18:57:44.058Z,963.56
2022-09-27T19:12:46.344Z,963.29
2022-09-27T19:27:48.645Z,963
2022-09-27T19:42:50.956Z,962.65
2022-09-27T19:57:53.444Z,962.34
2022-09-27T20:12:55.772Z,962.08
2022-09-27T20:27:58.098Z,961.76
2022-09-27T20:43:00.525Z,961.41
2022-09-27T20:58:02.780Z,961.16
2022-09-27T21:13:04.993Z,960.81
2022-09-27T21:28:07.387Z,960.51
2022-09-27T21:43:09.705Z,960.22
2022-09-27T21:58:12.208Z,959.99
2022-09-27T22:13:14.533Z,959.77
2022-09-27T22:28:16.823Z,959.51
2022-09-27T22:43:19.265Z,959.34
2022-09-27T22:58:21.624Z,959.12
2022-09-27T23:13:23.920Z,958.89
2022-09-27T23:28:26.283Z,958.73
2022-09-27T23:43:28.591Z,958.62
2022-09-27T23:58:31.126Z,958.57
